sensor_id;sensor_type;location;lat;lon;timestamp;temperature;humidity
13928;DHT22;7036;50.834;4.718;2023-05-10T00:00:26;21.20;67.50
13928;DHT22;7036;50.834;4.718;2023-05-10T00:02:54;21.20;67.40
13928;DHT22;7036;50.834;4.718;2023-05-10T00:05:21;21.10;67.40
13928;DHT22;7036;50.834;4.718;2023-05-10T00:07:49;21.20;67.50
13928;DHT22;7036;50.834;4.718;2023-05-10T00:10:17;21.10;67.40
13928;DHT22;7036;50.834;4.718;2023-05-10T00:12:44;21.20;67.40
13928;DHT22;7036;50.834;4.718;2023-05-10T00:15:12;21.20;67.40
13928;DHT22;7036;50.834;4.718;2023-05-10T00:17:40;21.10;67.40
13928;DHT22;7036;50.834;4.718;2023-05-10T00:20:09;21.10;67.30
13928;DHT22;7036;50.834;4.718;2023-05-10T00:22:36;21.10;67.20
13928;DHT22;7036;50.834;4.718;2023-05-10T00:25:03;21.10;67.20
13928;DHT22;7036;50.834;4.718;2023-05-10T00:27:30;21.10;67.30
13928;DHT22;7036;50.834;4.718;2023-05-10T00:29:58;21.10;67.40
13928;DHT22;7036;50.834;4.718;2023-05-10T00:32:26;21.10;67.20
13928;DHT22;7036;50.834;4.718;2023-05-10T00:34:53;21.10;67.20
13928;DHT22;7036;50.834;4.718;2023-05-10T00:37:20;21.10;67.20
13928;DHT22;7036;50.834;4.718;2023-05-10T00:39:48;21.10;67.20
13928;DHT22;7036;50.834;4.718;2023-05-10T00:42:17;21.10;67.30
13928;DHT22;7036;50.834;4.718;2023-05-10T00:44:43;21.10;67.20
13928;DHT22;7036;50.834;4.718;2023-05-10T00:47:10;21.10;67.10
13928;DHT22;7036;50.834;4.718;2023-05-10T00:49:38;21.10;67.40
13928;DHT22;7036;50.834;4.718;2023-05-10T00:52:06;21.10;67.20
13928;DHT22;7036;50.834;4.718;2023-05-10T00:54:34;21.10;67.20
13928;DHT22;7036;50.834;4.718;2023-05-10T00:57:02;21.10;67.20
13928;DHT22;7036;50.834;4.718;2023-05-10T00:59:30;21.10;67.00
13928;DHT22;7036;50.834;4.718;2023-05-10T01:01:57;21.10;67.10
13928;DHT22;7036;50.834;4.718;2023-05-10T01:04:26;21.10;67.20
13928;DHT22;7036;50.834;4.718;2023-05-10T01:06:52;21.10;67.00
13928;DHT22;7036;50.834;4.718;2023-05-10T01:09:20;21.10;67.20
13928;DHT22;7036;50.834;4.718;2023-05-10T01:11:48;21.10;67.00
13928;DHT22;7036;50.834;4.718;2023-05-10T01:14:15;21.10;66.40
13928;DHT22;7036;50.834;4.718;2023-05-10T01:16:43;21.10;67.10
13928;DHT22;7036;50.834;4.718;2023-05-10T01:19:17;21.10;67.00
13928;DHT22;7036;50.834;4.718;2023-05-10T01:21:50;21.10;67.00
13928;DHT22;7036;50.834;4.718;2023-05-10T01:24:23;21.10;67.00
13928;DHT22;7036;50.834;4.718;2023-05-10T01:32:26;21.10;66.90
13928;DHT22;7036;50.834;4.718;2023-05-10T01:35:01;21.10;67.00
13928;DHT22;7036;50.834;4.718;2023-05-10T01:37:42;21.10;67.70
13928;DHT22;7036;50.834;4.718;2023-05-10T01:40:17;21.10;67.10
13928;DHT22;7036;50.834;4.718;2023-05-10T01:42:49;21.10;67.00
13928;DHT22;7036;50.834;4.718;2023-05-10T01:48:07;21.10;67.00
13928;DHT22;7036;50.834;4.718;2023-05-10T01:50:33;21.00;67.00
13928;DHT22;7036;50.834;4.718;2023-05-10T01:53:01;21.00;67.10
13928;DHT22;7036;50.834;4.718;2023-05-10T01:55:30;21.00;67.10
13928;DHT22;7036;50.834;4.718;2023-05-10T01:58:04;21.00;67.10
13928;DHT22;7036;50.834;4.718;2023-05-10T02:00:30;21.00;67.00
13928;DHT22;7036;50.834;4.718;2023-05-10T02:02:56;21.00;66.90
13928;DHT22;7036;50.834;4.718;2023-05-10T02:05:25;21.00;67.00
13928;DHT22;7036;50.834;4.718;2023-05-10T02:07:53;21.00;66.80
13928;DHT22;7036;50.834;4.718;2023-05-10T02:10:22;21.00;66.80
13928;DHT22;7036;50.834;4.718;2023-05-10T02:12:48;21.00;66.90
13928;DHT22;7036;50.834;4.718;2023-05-10T02:15:18;21.00;67.00
13928;DHT22;7036;50.834;4.718;2023-05-10T02:17:44;21.00;67.00
13928;DHT22;7036;50.834;4.718;2023-05-10T02:20:13;21.00;67.00
13928;DHT22;7036;50.834;4.718;2023-05-10T02:22:40;21.00;66.90
13928;DHT22;7036;50.834;4.718;2023-05-10T02:25:07;21.00;66.90
13928;DHT22;7036;50.834;4.718;2023-05-10T02:27:34;21.00;66.90
13928;DHT22;7036;50.834;4.718;2023-05-10T02:30:02;21.00;66.90
13928;DHT22;7036;50.834;4.718;2023-05-10T02:32:30;21.00;66.80
13928;DHT22;7036;50.834;4.718;2023-05-10T02:34:58;21.00;67.00
13928;DHT22;7036;50.834;4.718;2023-05-10T02:37:26;21.00;67.00
13928;DHT22;7036;50.834;4.718;2023-05-10T02:39:54;21.00;67.00
13928;DHT22;7036;50.834;4.718;2023-05-10T02:42:27;21.00;66.90
13928;DHT22;7036;50.834;4.718;2023-05-10T02:44:59;21.00;66.80
13928;DHT22;7036;50.834;4.718;2023-05-10T02:47:22;21.00;67.00
13928;DHT22;7036;50.834;4.718;2023-05-10T02:49:50;21.00;66.90
13928;DHT22;7036;50.834;4.718;2023-05-10T02:52:19;21.00;66.80
13928;DHT22;7036;50.834;4.718;2023-05-10T02:54:47;21.00;66.80
13928;DHT22;7036;50.834;4.718;2023-05-10T02:57:15;21.00;66.90
13928;DHT22;7036;50.834;4.718;2023-05-10T02:59:42;21.00;66.90
13928;DHT22;7036;50.834;4.718;2023-05-10T03:02:09;21.00;66.70
13928;DHT22;7036;50.834;4.718;2023-05-10T03:04:37;21.00;66.80
13928;DHT22;7036;50.834;4.718;2023-05-10T03:07:05;21.00;66.90
13928;DHT22;7036;50.834;4.718;2023-05-10T03:09:33;21.00;66.80
13928;DHT22;7036;50.834;4.718;2023-05-10T03:17:25;21.00;66.70
13928;DHT22;7036;50.834;4.718;2023-05-10T03:19:57;21.00;66.70
13928;DHT22;7036;50.834;4.718;2023-05-10T03:22:30;21.00;67.40
13928;DHT22;7036;50.834;4.718;2023-05-10T03:24:59;20.90;66.60
13928;DHT22;7036;50.834;4.718;2023-05-10T03:27:26;21.00;66.70
13928;DHT22;7036;50.834;4.718;2023-05-10T03:29:53;21.00;66.70
13928;DHT22;7036;50.834;4.718;2023-05-10T03:32:20;20.90;66.70
13928;DHT22;7036;50.834;4.718;2023-05-10T03:34:48;20.90;66.80
13928;DHT22;7036;50.834;4.718;2023-05-10T03:37:15;20.90;66.70
13928;DHT22;7036;50.834;4.718;2023-05-10T03:39:43;20.90;66.80
13928;DHT22;7036;50.834;4.718;2023-05-10T03:42:11;20.90;66.80
13928;DHT22;7036;50.834;4.718;2023-05-10T03:44:39;20.90;66.80
13928;DHT22;7036;50.834;4.718;2023-05-10T03:47:06;20.90;66.70
13928;DHT22;7036;50.834;4.718;2023-05-10T03:49:34;20.90;66.70
13928;DHT22;7036;50.834;4.718;2023-05-10T03:52:01;20.90;66.50
13928;DHT22;7036;50.834;4.718;2023-05-10T03:54:29;20.90;66.60
13928;DHT22;7036;50.834;4.718;2023-05-10T03:56:56;20.90;66.60
13928;DHT22;7036;50.834;4.718;2023-05-10T03:59:23;20.90;66.60
13928;DHT22;7036;50.834;4.718;2023-05-10T04:01:52;20.90;66.60
13928;DHT22;7036;50.834;4.718;2023-05-10T04:04:18;20.90;66.60
13928;DHT22;7036;50.834;4.718;2023-05-10T04:06:46;20.90;66.70
13928;DHT22;7036;50.834;4.718;2023-05-10T04:09:13;20.90;66.50
13928;DHT22;7036;50.834;4.718;2023-05-10T04:11:41;20.90;66.80
13928;DHT22;7036;50.834;4.718;2023-05-10T04:14:09;20.90;66.70
13928;DHT22;7036;50.834;4.718;2023-05-10T04:16:37;20.90;66.70
13928;DHT22;7036;50.834;4.718;2023-05-10T04:19:05;20.90;66.70
13928;DHT22;7036;50.834;4.718;2023-05-10T04:21:33;20.90;66.70
13928;DHT22;7036;50.834;4.718;2023-05-10T04:24:01;20.90;66.70
13928;DHT22;7036;50.834;4.718;2023-05-10T04:26:29;20.90;66.80
13928;DHT22;7036;50.834;4.718;2023-05-10T04:28:57;20.90;66.80
13928;DHT22;7036;50.834;4.718;2023-05-10T04:31:25;20.90;66.70
13928;DHT22;7036;50.834;4.718;2023-05-10T04:33:53;20.90;66.70
13928;DHT22;7036;50.834;4.718;2023-05-10T04:36:20;20.90;66.50
13928;DHT22;7036;50.834;4.718;2023-05-10T04:38:48;20.90;66.90
13928;DHT22;7036;50.834;4.718;2023-05-10T04:41:16;20.90;66.80
13928;DHT22;7036;50.834;4.718;2023-05-10T04:43:44;20.90;66.70
13928;DHT22;7036;50.834;4.718;2023-05-10T04:46:11;20.90;66.60
13928;DHT22;7036;50.834;4.718;2023-05-10T04:48:38;20.90;66.50
13928;DHT22;7036;50.834;4.718;2023-05-10T04:51:06;20.90;66.60
13928;DHT22;7036;50.834;4.718;2023-05-10T04:53:33;20.90;66.50
13928;DHT22;7036;50.834;4.718;2023-05-10T04:56:01;20.80;66.60
13928;DHT22;7036;50.834;4.718;2023-05-10T04:58:29;20.80;66.60
13928;DHT22;7036;50.834;4.718;2023-05-10T05:00:57;20.80;66.60
13928;DHT22;7036;50.834;4.718;2023-05-10T05:03:25;20.80;66.60
13928;DHT22;7036;50.834;4.718;2023-05-10T05:05:54;20.80;66.60
13928;DHT22;7036;50.834;4.718;2023-05-10T05:08:21;20.80;66.40
13928;DHT22;7036;50.834;4.718;2023-05-10T05:10:48;20.80;66.40
13928;DHT22;7036;50.834;4.718;2023-05-10T05:13:16;20.80;66.50
13928;DHT22;7036;50.834;4.718;2023-05-10T05:15:43;20.80;66.30
13928;DHT22;7036;50.834;4.718;2023-05-10T05:18:10;20.80;66.40
13928;DHT22;7036;50.834;4.718;2023-05-10T05:20:38;20.80;66.50
13928;DHT22;7036;50.834;4.718;2023-05-10T05:23:06;20.80;66.50
13928;DHT22;7036;50.834;4.718;2023-05-10T05:25:35;20.80;66.40
13928;DHT22;7036;50.834;4.718;2023-05-10T05:28:04;20.80;66.50
13928;DHT22;7036;50.834;4.718;2023-05-10T05:30:30;20.80;66.30
13928;DHT22;7036;50.834;4.718;2023-05-10T05:32:58;20.80;66.40
13928;DHT22;7036;50.834;4.718;2023-05-10T05:35:25;20.80;66.20
13928;DHT22;7036;50.834;4.718;2023-05-10T05:37:53;20.80;66.50
13928;DHT22;7036;50.834;4.718;2023-05-10T05:40:23;20.80;66.40
13928;DHT22;7036;50.834;4.718;2023-05-10T05:42:49;20.80;66.30
13928;DHT22;7036;50.834;4.718;2023-05-10T05:45:17;20.80;66.50
13928;DHT22;7036;50.834;4.718;2023-05-10T05:47:45;20.90;66.60
13928;DHT22;7036;50.834;4.718;2023-05-10T05:50:12;20.90;66.50
13928;DHT22;7036;50.834;4.718;2023-05-10T05:52:40;20.90;66.70
13928;DHT22;7036;50.834;4.718;2023-05-10T05:55:08;20.90;66.60
13928;DHT22;7036;50.834;4.718;2023-05-10T05:57:36;20.90;66.60
13928;DHT22;7036;50.834;4.718;2023-05-10T06:00:02;20.90;66.70
13928;DHT22;7036;50.834;4.718;2023-05-10T06:02:29;20.90;67.00
13928;DHT22;7036;50.834;4.718;2023-05-10T06:04:57;20.90;66.90
13928;DHT22;7036;50.834;4.718;2023-05-10T06:07:24;20.90;66.90
13928;DHT22;7036;50.834;4.718;2023-05-10T06:09:51;20.90;66.80
13928;DHT22;7036;50.834;4.718;2023-05-10T06:12:18;20.90;66.70
13928;DHT22;7036;50.834;4.718;2023-05-10T06:14:46;20.80;66.70
13928;DHT22;7036;50.834;4.718;2023-05-10T06:17:14;20.80;66.70
13928;DHT22;7036;50.834;4.718;2023-05-10T06:19:42;20.80;66.60
13928;DHT22;7036;50.834;4.718;2023-05-10T06:22:10;20.80;66.70
13928;DHT22;7036;50.834;4.718;2023-05-10T06:24:38;20.80;66.70
13928;DHT22;7036;50.834;4.718;2023-05-10T06:27:06;20.80;66.90
13928;DHT22;7036;50.834;4.718;2023-05-10T06:29:34;20.80;66.80
13928;DHT22;7036;50.834;4.718;2023-05-10T06:32:01;20.80;66.70
13928;DHT22;7036;50.834;4.718;2023-05-10T06:34:29;20.80;66.70
13928;DHT22;7036;50.834;4.718;2023-05-10T06:36:56;20.90;66.80
13928;DHT22;7036;50.834;4.718;2023-05-10T06:39:23;20.90;66.80
13928;DHT22;7036;50.834;4.718;2023-05-10T06:41:50;20.90;66.70
13928;DHT22;7036;50.834;4.718;2023-05-10T06:44:18;20.90;66.70
13928;DHT22;7036;50.834;4.718;2023-05-10T06:46:46;20.90;67.30
13928;DHT22;7036;50.834;4.718;2023-05-10T06:49:13;20.90;66.70
13928;DHT22;7036;50.834;4.718;2023-05-10T06:51:40;20.90;66.90
13928;DHT22;7036;50.834;4.718;2023-05-10T06:54:08;21.00;67.10
13928;DHT22;7036;50.834;4.718;2023-05-10T06:56:36;21.00;66.90
13928;DHT22;7036;50.834;4.718;2023-05-10T06:59:03;20.90;66.70
13928;DHT22;7036;50.834;4.718;2023-05-10T07:01:31;20.90;66.80
13928;DHT22;7036;50.834;4.718;2023-05-10T07:03:58;20.90;66.80
13928;DHT22;7036;50.834;4.718;2023-05-10T07:06:26;20.90;66.80
13928;DHT22;7036;50.834;4.718;2023-05-10T07:08:53;20.90;66.60
13928;DHT22;7036;50.834;4.718;2023-05-10T07:11:20;20.90;66.30
13928;DHT22;7036;50.834;4.718;2023-05-10T07:13:48;20.90;66.30
13928;DHT22;7036;50.834;4.718;2023-05-10T07:16:16;20.80;66.40
13928;DHT22;7036;50.834;4.718;2023-05-10T07:18:43;20.80;66.20
13928;DHT22;7036;50.834;4.718;2023-05-10T07:21:12;20.80;66.10
13928;DHT22;7036;50.834;4.718;2023-05-10T07:23:38;20.80;66.00
13928;DHT22;7036;50.834;4.718;2023-05-10T07:26:06;20.80;65.90
13928;DHT22;7036;50.834;4.718;2023-05-10T07:28:35;20.80;66.60
13928;DHT22;7036;50.834;4.718;2023-05-10T07:31:01;20.80;65.70
13928;DHT22;7036;50.834;4.718;2023-05-10T07:33:30;20.80;65.90
13928;DHT22;7036;50.834;4.718;2023-05-10T07:35:57;20.80;65.80
13928;DHT22;7036;50.834;4.718;2023-05-10T07:38:25;20.80;66.60
13928;DHT22;7036;50.834;4.718;2023-05-10T07:40:53;20.80;65.90
13928;DHT22;7036;50.834;4.718;2023-05-10T07:43:20;20.80;65.70
13928;DHT22;7036;50.834;4.718;2023-05-10T07:45:48;20.80;65.90
13928;DHT22;7036;50.834;4.718;2023-05-10T07:48:15;20.80;65.80
13928;DHT22;7036;50.834;4.718;2023-05-10T07:50:43;20.80;66.00
13928;DHT22;7036;50.834;4.718;2023-05-10T07:53:10;20.80;65.80
13928;DHT22;7036;50.834;4.718;2023-05-10T07:55:38;20.80;65.90
13928;DHT22;7036;50.834;4.718;2023-05-10T07:58:05;20.90;66.00
13928;DHT22;7036;50.834;4.718;2023-05-10T08:00:32;20.90;65.90
13928;DHT22;7036;50.834;4.718;2023-05-10T08:03:01;20.90;66.10
13928;DHT22;7036;50.834;4.718;2023-05-10T08:05:28;20.90;66.70
13928;DHT22;7036;50.834;4.718;2023-05-10T08:07:56;20.90;66.20
13928;DHT22;7036;50.834;4.718;2023-05-10T08:10:23;20.90;66.90
13928;DHT22;7036;50.834;4.718;2023-05-10T08:12:50;20.90;66.20
13928;DHT22;7036;50.834;4.718;2023-05-10T08:15:17;20.90;66.30
13928;DHT22;7036;50.834;4.718;2023-05-10T08:17:44;20.90;66.20
13928;DHT22;7036;50.834;4.718;2023-05-10T08:20:12;20.90;66.20
13928;DHT22;7036;50.834;4.718;2023-05-10T08:22:40;20.90;66.30
13928;DHT22;7036;50.834;4.718;2023-05-10T08:25:08;20.90;66.00
13928;DHT22;7036;50.834;4.718;2023-05-10T08:27:35;20.90;66.10
13928;DHT22;7036;50.834;4.718;2023-05-10T08:30:02;20.90;66.10
13928;DHT22;7036;50.834;4.718;2023-05-10T08:32:29;20.90;66.20
13928;DHT22;7036;50.834;4.718;2023-05-10T08:34:57;20.90;66.30
13928;DHT22;7036;50.834;4.718;2023-05-10T08:37:24;20.90;66.10
13928;DHT22;7036;50.834;4.718;2023-05-10T08:39:52;20.90;66.30
13928;DHT22;7036;50.834;4.718;2023-05-10T08:42:19;20.90;66.10
13928;DHT22;7036;50.834;4.718;2023-05-10T08:44:47;20.90;66.20
13928;DHT22;7036;50.834;4.718;2023-05-10T08:47:15;20.90;66.20
13928;DHT22;7036;50.834;4.718;2023-05-10T08:49:41;20.90;66.20
13928;DHT22;7036;50.834;4.718;2023-05-10T08:52:08;20.90;66.20
13928;DHT22;7036;50.834;4.718;2023-05-10T08:54:36;20.90;66.30
13928;DHT22;7036;50.834;4.718;2023-05-10T08:57:05;20.90;66.40
13928;DHT22;7036;50.834;4.718;2023-05-10T08:59:31;20.90;66.30
13928;DHT22;7036;50.834;4.718;2023-05-10T09:01:59;20.90;66.20
13928;DHT22;7036;50.834;4.718;2023-05-10T09:04:27;20.90;66.20
13928;DHT22;7036;50.834;4.718;2023-05-10T09:06:54;20.90;66.20
13928;DHT22;7036;50.834;4.718;2023-05-10T09:09:23;20.90;66.20
13928;DHT22;7036;50.834;4.718;2023-05-10T09:11:50;20.90;66.10
13928;DHT22;7036;50.834;4.718;2023-05-10T09:14:17;20.90;66.10
13928;DHT22;7036;50.834;4.718;2023-05-10T09:16:45;20.90;66.70
13928;DHT22;7036;50.834;4.718;2023-05-10T09:19:12;20.90;66.20
13928;DHT22;7036;50.834;4.718;2023-05-10T09:21:39;20.90;66.20
13928;DHT22;7036;50.834;4.718;2023-05-10T09:24:07;21.00;66.20
13928;DHT22;7036;50.834;4.718;2023-05-10T09:26:34;21.00;66.30
13928;DHT22;7036;50.834;4.718;2023-05-10T09:29:02;21.00;66.40
13928;DHT22;7036;50.834;4.718;2023-05-10T09:31:47;21.00;66.40
13928;DHT22;7036;50.834;4.718;2023-05-10T09:34:20;21.00;66.50
13928;DHT22;7036;50.834;4.718;2023-05-10T09:36:57;21.00;66.40
13928;DHT22;7036;50.834;4.718;2023-05-10T09:39:29;21.00;66.60
13928;DHT22;7036;50.834;4.718;2023-05-10T09:41:48;21.00;66.60
13928;DHT22;7036;50.834;4.718;2023-05-10T09:44:18;21.00;66.70
13928;DHT22;7036;50.834;4.718;2023-05-10T09:46:48;21.00;66.90
13928;DHT22;7036;50.834;4.718;2023-05-10T09:49:14;21.00;67.00
13928;DHT22;7036;50.834;4.718;2023-05-10T09:51:39;20.90;67.20
13928;DHT22;7036;50.834;4.718;2023-05-10T09:54:14;21.00;67.20
13928;DHT22;7036;50.834;4.718;2023-05-10T09:56:41;21.00;67.30
13928;DHT22;7036;50.834;4.718;2023-05-10T09:59:11;21.00;67.20
13928;DHT22;7036;50.834;4.718;2023-05-10T10:01:37;21.00;67.30
13928;DHT22;7036;50.834;4.718;2023-05-10T10:04:08;21.00;67.40
13928;DHT22;7036;50.834;4.718;2023-05-10T10:06:40;21.00;67.40
13928;DHT22;7036;50.834;4.718;2023-05-10T10:09:07;21.00;67.40
13928;DHT22;7036;50.834;4.718;2023-05-10T10:11:36;21.10;67.80
13928;DHT22;7036;50.834;4.718;2023-05-10T10:14:02;21.00;67.50
13928;DHT22;7036;50.834;4.718;2023-05-10T10:16:30;21.00;67.60
13928;DHT22;7036;50.834;4.718;2023-05-10T10:18:57;21.00;67.50
13928;DHT22;7036;50.834;4.718;2023-05-10T10:21:24;21.00;67.40
13928;DHT22;7036;50.834;4.718;2023-05-10T10:23:51;21.00;67.50
13928;DHT22;7036;50.834;4.718;2023-05-10T10:26:19;21.00;67.70
13928;DHT22;7036;50.834;4.718;2023-05-10T10:31:32;21.10;67.70
13928;DHT22;7036;50.834;4.718;2023-05-10T10:34:01;21.10;67.70
13928;DHT22;7036;50.834;4.718;2023-05-10T10:36:27;21.10;67.70
13928;DHT22;7036;50.834;4.718;2023-05-10T10:38:54;21.10;67.80
13928;DHT22;7036;50.834;4.718;2023-05-10T10:41:28;21.10;67.80
13928;DHT22;7036;50.834;4.718;2023-05-10T10:46:59;21.10;68.00
13928;DHT22;7036;50.834;4.718;2023-05-10T10:49:25;21.10;67.90
13928;DHT22;7036;50.834;4.718;2023-05-10T10:57:28;21.10;68.30
13928;DHT22;7036;50.834;4.718;2023-05-10T11:00:27;21.10;68.60
13928;DHT22;7036;50.834;4.718;2023-05-10T11:03:06;21.10;68.50
13928;DHT22;7036;50.834;4.718;2023-05-10T11:05:37;21.20;69.00
13928;DHT22;7036;50.834;4.718;2023-05-10T11:08:09;21.10;68.00
13928;DHT22;7036;50.834;4.718;2023-05-10T11:10:34;21.20;68.50
13928;DHT22;7036;50.834;4.718;2023-05-10T11:13:03;21.20;68.20
13928;DHT22;7036;50.834;4.718;2023-05-10T11:15:37;21.20;68.20
13928;DHT22;7036;50.834;4.718;2023-05-10T11:18:19;21.20;68.10
13928;DHT22;7036;50.834;4.718;2023-05-10T11:20:50;21.20;68.20
13928;DHT22;7036;50.834;4.718;2023-05-10T11:23:13;21.20;68.30
13928;DHT22;7036;50.834;4.718;2023-05-10T11:25:45;21.20;68.80
13928;DHT22;7036;50.834;4.718;2023-05-10T11:28:12;21.20;68.50
13928;DHT22;7036;50.834;4.718;2023-05-10T11:30:39;21.20;68.60
13928;DHT22;7036;50.834;4.718;2023-05-10T11:33:06;21.20;68.70
13928;DHT22;7036;50.834;4.718;2023-05-10T11:35:39;21.20;68.40
13928;DHT22;7036;50.834;4.718;2023-05-10T11:38:09;21.30;68.70
13928;DHT22;7036;50.834;4.718;2023-05-10T11:40:36;21.30;68.80
13928;DHT22;7036;50.834;4.718;2023-05-10T11:43:03;21.30;68.70
13928;DHT22;7036;50.834;4.718;2023-05-10T11:45:34;21.30;68.00
13928;DHT22;7036;50.834;4.718;2023-05-10T11:48:01;21.30;68.60
13928;DHT22;7036;50.834;4.718;2023-05-10T11:50:28;21.30;68.90
13928;DHT22;7036;50.834;4.718;2023-05-10T11:52:56;21.30;68.60
13928;DHT22;7036;50.834;4.718;2023-05-10T11:55:22;21.30;68.60
13928;DHT22;7036;50.834;4.718;2023-05-10T11:57:59;21.30;68.60
13928;DHT22;7036;50.834;4.718;2023-05-10T12:00:22;21.30;68.50
13928;DHT22;7036;50.834;4.718;2023-05-10T12:02:49;21.30;68.80
13928;DHT22;7036;50.834;4.718;2023-05-10T12:05:17;21.30;69.20
13928;DHT22;7036;50.834;4.718;2023-05-10T12:07:44;21.30;69.10
13928;DHT22;7036;50.834;4.718;2023-05-10T12:10:12;21.30;69.00
13928;DHT22;7036;50.834;4.718;2023-05-10T12:12:43;21.30;68.90
13928;DHT22;7036;50.834;4.718;2023-05-10T12:15:19;21.40;69.50
13928;DHT22;7036;50.834;4.718;2023-05-10T12:17:45;21.30;69.30
13928;DHT22;7036;50.834;4.718;2023-05-10T12:20:22;21.40;69.90
13928;DHT22;7036;50.834;4.718;2023-05-10T12:22:50;21.40;70.00
13928;DHT22;7036;50.834;4.718;2023-05-10T12:25:17;21.40;69.80
13928;DHT22;7036;50.834;4.718;2023-05-10T12:30:20;21.40;69.70
13928;DHT22;7036;50.834;4.718;2023-05-10T12:32:45;21.40;69.90
13928;DHT22;7036;50.834;4.718;2023-05-10T12:35:13;21.40;70.00
13928;DHT22;7036;50.834;4.718;2023-05-10T12:37:42;21.40;69.90
13928;DHT22;7036;50.834;4.718;2023-05-10T12:40:09;21.40;70.70
13928;DHT22;7036;50.834;4.718;2023-05-10T12:42:36;21.40;69.90
13928;DHT22;7036;50.834;4.718;2023-05-10T12:45:04;21.40;70.00
13928;DHT22;7036;50.834;4.718;2023-05-10T12:47:32;21.40;70.50
13928;DHT22;7036;50.834;4.718;2023-05-10T12:50:00;21.40;70.10
13928;DHT22;7036;50.834;4.718;2023-05-10T12:52:28;21.40;70.30
13928;DHT22;7036;50.834;4.718;2023-05-10T12:54:55;21.40;69.50
13928;DHT22;7036;50.834;4.718;2023-05-10T12:57:22;21.40;69.40
13928;DHT22;7036;50.834;4.718;2023-05-10T12:59:50;21.40;70.00
13928;DHT22;7036;50.834;4.718;2023-05-10T13:02:18;21.40;69.90
13928;DHT22;7036;50.834;4.718;2023-05-10T13:04:46;21.40;69.90
13928;DHT22;7036;50.834;4.718;2023-05-10T13:07:14;21.40;69.90
13928;DHT22;7036;50.834;4.718;2023-05-10T13:09:42;21.40;70.00
13928;DHT22;7036;50.834;4.718;2023-05-10T13:12:09;21.40;69.90
13928;DHT22;7036;50.834;4.718;2023-05-10T13:14:37;21.40;69.90
13928;DHT22;7036;50.834;4.718;2023-05-10T13:17:05;21.40;69.70
13928;DHT22;7036;50.834;4.718;2023-05-10T13:19:33;21.40;69.80
13928;DHT22;7036;50.834;4.718;2023-05-10T13:22:00;21.40;69.70
13928;DHT22;7036;50.834;4.718;2023-05-10T13:24:30;21.40;69.10
13928;DHT22;7036;50.834;4.718;2023-05-10T13:26:57;21.40;69.40
13928;DHT22;7036;50.834;4.718;2023-05-10T13:29:24;21.40;69.30
13928;DHT22;7036;50.834;4.718;2023-05-10T13:31:52;21.50;69.40
13928;DHT22;7036;50.834;4.718;2023-05-10T13:34:19;21.50;69.40
13928;DHT22;7036;50.834;4.718;2023-05-10T13:36:46;21.50;69.60
13928;DHT22;7036;50.834;4.718;2023-05-10T13:39:14;21.50;69.80
13928;DHT22;7036;50.834;4.718;2023-05-10T13:41:41;21.50;69.70
13928;DHT22;7036;50.834;4.718;2023-05-10T13:44:11;21.50;69.40
13928;DHT22;7036;50.834;4.718;2023-05-10T13:46:37;21.50;69.20
13928;DHT22;7036;50.834;4.718;2023-05-10T13:49:05;21.50;69.20
13928;DHT22;7036;50.834;4.718;2023-05-10T13:51:34;21.50;69.10
13928;DHT22;7036;50.834;4.718;2023-05-10T13:54:02;21.50;69.00
13928;DHT22;7036;50.834;4.718;2023-05-10T13:56:29;21.50;68.90
13928;DHT22;7036;50.834;4.718;2023-05-10T13:58:57;21.50;68.90
13928;DHT22;7036;50.834;4.718;2023-05-10T14:01:26;21.60;69.10
13928;DHT22;7036;50.834;4.718;2023-05-10T14:03:53;21.60;68.70
13928;DHT22;7036;50.834;4.718;2023-05-10T14:06:20;21.60;68.80
13928;DHT22;7036;50.834;4.718;2023-05-10T14:08:48;21.60;68.60
13928;DHT22;7036;50.834;4.718;2023-05-10T14:11:16;21.60;68.50
13928;DHT22;7036;50.834;4.718;2023-05-10T14:13:44;21.60;68.40
13928;DHT22;7036;50.834;4.718;2023-05-10T14:16:11;21.60;68.30
13928;DHT22;7036;50.834;4.718;2023-05-10T14:18:38;21.60;68.30
13928;DHT22;7036;50.834;4.718;2023-05-10T14:21:05;21.60;68.40
13928;DHT22;7036;50.834;4.718;2023-05-10T14:23:33;21.60;68.50
13928;DHT22;7036;50.834;4.718;2023-05-10T14:26:01;21.70;68.50
13928;DHT22;7036;50.834;4.718;2023-05-10T14:28:29;21.60;68.30
13928;DHT22;7036;50.834;4.718;2023-05-10T14:30:56;21.60;68.20
13928;DHT22;7036;50.834;4.718;2023-05-10T14:33:24;21.70;68.20
13928;DHT22;7036;50.834;4.718;2023-05-10T14:35:53;21.70;68.10
13928;DHT22;7036;50.834;4.718;2023-05-10T14:38:20;21.70;68.10
13928;DHT22;7036;50.834;4.718;2023-05-10T14:40:48;21.70;68.10
13928;DHT22;7036;50.834;4.718;2023-05-10T14:43:17;21.70;68.00
13928;DHT22;7036;50.834;4.718;2023-05-10T14:45:44;21.70;67.90
13928;DHT22;7036;50.834;4.718;2023-05-10T14:48:12;21.70;68.00
13928;DHT22;7036;50.834;4.718;2023-05-10T14:50:39;21.70;68.00
13928;DHT22;7036;50.834;4.718;2023-05-10T14:53:06;21.70;68.00
13928;DHT22;7036;50.834;4.718;2023-05-10T14:55:33;21.70;68.00
13928;DHT22;7036;50.834;4.718;2023-05-10T14:58:04;21.70;67.60
13928;DHT22;7036;50.834;4.718;2023-05-10T15:00:31;21.70;67.50
13928;DHT22;7036;50.834;4.718;2023-05-10T15:02:58;21.60;67.00
13928;DHT22;7036;50.834;4.718;2023-05-10T15:05:25;21.70;67.30
13928;DHT22;7036;50.834;4.718;2023-05-10T15:07:52;21.60;67.30
13928;DHT22;7036;50.834;4.718;2023-05-10T15:10:20;21.60;67.30
13928;DHT22;7036;50.834;4.718;2023-05-10T15:12:49;21.70;67.30
13928;DHT22;7036;50.834;4.718;2023-05-10T15:15:17;21.70;67.20
13928;DHT22;7036;50.834;4.718;2023-05-10T15:17:44;21.70;67.10
13928;DHT22;7036;50.834;4.718;2023-05-10T15:20:12;21.70;67.20
13928;DHT22;7036;50.834;4.718;2023-05-10T15:22:39;21.60;67.00
13928;DHT22;7036;50.834;4.718;2023-05-10T15:25:06;21.70;67.10
13928;DHT22;7036;50.834;4.718;2023-05-10T15:27:35;21.70;67.00
13928;DHT22;7036;50.834;4.718;2023-05-10T15:30:01;21.70;67.10
13928;DHT22;7036;50.834;4.718;2023-05-10T15:32:28;21.70;67.00
13928;DHT22;7036;50.834;4.718;2023-05-10T15:34:56;21.70;67.10
13928;DHT22;7036;50.834;4.718;2023-05-10T15:37:23;21.70;67.90
13928;DHT22;7036;50.834;4.718;2023-05-10T15:39:50;21.70;67.20
13928;DHT22;7036;50.834;4.718;2023-05-10T15:42:18;21.70;67.20
13928;DHT22;7036;50.834;4.718;2023-05-10T15:44:45;21.70;67.10
13928;DHT22;7036;50.834;4.718;2023-05-10T15:47:12;21.70;67.70
13928;DHT22;7036;50.834;4.718;2023-05-10T15:49:40;21.60;66.30
13928;DHT22;7036;50.834;4.718;2023-05-10T15:52:08;21.60;65.80
13928;DHT22;7036;50.834;4.718;2023-05-10T15:54:36;21.60;65.70
13928;DHT22;7036;50.834;4.718;2023-05-10T15:57:02;21.60;66.30
13928;DHT22;7036;50.834;4.718;2023-05-10T15:59:31;21.60;66.20
13928;DHT22;7036;50.834;4.718;2023-05-10T16:01:58;21.60;66.10
13928;DHT22;7036;50.834;4.718;2023-05-10T16:04:26;21.60;66.00
13928;DHT22;7036;50.834;4.718;2023-05-10T16:06:54;21.60;65.70
13928;DHT22;7036;50.834;4.718;2023-05-10T16:09:21;21.60;65.60
13928;DHT22;7036;50.834;4.718;2023-05-10T16:11:48;21.60;65.60
13928;DHT22;7036;50.834;4.718;2023-05-10T16:14:16;21.60;65.70
13928;DHT22;7036;50.834;4.718;2023-05-10T16:16:43;21.60;65.50